Paragon — WDD4086 — position and weather

sailwx.info

Track history (hours):
 
Tides and Currents Weather Stations Pressure Air Temp Water Temp Dewpoint Dewpoint Depression Visibility Wind Speed Wind Dir Waves Ship Positions

Paragon

Owner: Rainier Investments Inc., Edmonds, WA. More information available from US FCC via Universal Licensing System and Coast Guard Vessel Documentation Center.

Last reported at 2018-Feb-09 18:01 UTC. Time now 2018-Feb-20 23:59 UTC.
Position N 47°40' W 122°23'.
Warning: this ship's position is 11 days out of date.

Length 31 m; draft 3 m.

Type: Fishing. MMSI: 367530000.

Date/timePositionNaut miles runAvg speedWind from/ knotsBaromVisibWave heightAir tempDewpointWater temp
2018-Feb-09 18:01N 47°40' W 122°23'1 0.0
2018-Feb-08 22:00N 47°39' W 122°23'0 0.0
2018-Feb-08 21:30N 47°39' W 122°23'0 0.0
2018-Feb-08 21:00N 47°39' W 122°23'0 0.0
2018-Feb-08 20:30N 47°39' W 122°23'0 0.0
2018-Feb-08 20:00N 47°39' W 122°23'0 0.0
2018-Feb-08 19:30N 47°39' W 122°23'0 0.0
2018-Feb-08 19:00N 47°39' W 122°23'0 0.0
2018-Feb-08 18:30N 47°39' W 122°23'0 0.0
2018-Feb-08 18:00N 47°39' W 122°23'0 0.0
2018-Feb-08 17:30N 47°39' W 122°23'0 0.0
2018-Feb-08 17:00N 47°39' W 122°23'0 0.0
2018-Feb-08 16:30N 47°39' W 122°23'0 0.0
2018-Feb-08 16:00N 47°39' W 122°23'0 0.0
2018-Feb-08 15:30N 47°39' W 122°23'0 0.0
2018-Feb-08 15:00N 47°39' W 122°23'0 0.0
2018-Feb-08 13:30N 47°39' W 122°23'0 0.0
2018-Feb-08 13:00N 47°39' W 122°23'0 0.0
2018-Feb-08 12:30N 47°39' W 122°23'0 0.0
2018-Feb-08 12:00N 47°39' W 122°23'0 0.0
2018-Feb-08 11:00N 47°39' W 122°23'0 0.0
2018-Feb-08 10:30N 47°39' W 122°23'0 0.0
2018-Feb-08 10:00N 47°39' W 122°23'0 0.0
2018-Feb-08 09:30N 47°39' W 122°23'0 0.0
2018-Feb-08 09:00N 47°39' W 122°23'0 0.0
2018-Feb-08 08:30N 47°39' W 122°23'0 0.0
2018-Feb-08 08:00N 47°39' W 122°23'0 0.0
2018-Feb-08 07:30N 47°39' W 122°23'0 0.0
2018-Feb-08 07:00N 47°39' W 122°23'0 0.0
2018-Feb-08 06:30N 47°39' W 122°23'0 0.0
2018-Feb-08 06:00N 47°39' W 122°23'0 0.0
2018-Feb-08 05:30N 47°39' W 122°23'0 0.0
2018-Feb-08 05:00N 47°39' W 122°23'0 0.0
2018-Feb-08 04:30N 47°39' W 122°23'0 0.0
2018-Feb-08 04:00N 47°39' W 122°23'0 0.0
2018-Feb-08 03:30N 47°39' W 122°23'0 0.0
2018-Feb-08 03:00N 47°39' W 122°23'0 0.0
2018-Feb-08 01:30N 47°39' W 122°23'1 1.6
2018-Feb-08 01:00N 47°40' W 122°24'2 3.8
2018-Feb-08 00:30N 47°42' W 122°25'5 9.4
2018-Feb-08 00:00N 47°46' W 122°26'4 9.0
2018-Feb-07 23:30N 47°50' W 122°29'5 8.9
2018-Feb-07 23:00N 47°55' W 122°30'4 7.5
2018-Feb-07 22:30N 47°57' W 122°35'3 6.9
2018-Feb-07 22:00N 48°00' W 122°37'122 8.0
2018-Feb-07 06:45N 49°34' W 124°35'3 9.4
2018-Feb-07 06:24N 49°37' W 124°38'4 9.5
2018-Feb-07 06:00N 49°40' W 124°42'5 9.2
2018-Feb-07 05:30N 49°43' W 124°46'5 9.6
2018-Feb-07 04:59N 49°47' W 124°51'4 9.2
2018-Feb-07 04:30N 49°50' W 124°56'5 9.0
2018-Feb-07 04:00N 49°53' W 125°02'5 9.2
2018-Feb-07 03:30N 49°56' W 125°06'611.3
2018-Feb-07 03:00N 50°00' W 125°13'713.5
2018-Feb-07 02:30N 50°06' W 125°18'612.0
2018-Feb-07 02:00N 50°11' W 125°22'510.2
2018-Feb-07 01:29N 50°16' W 125°24'10 8.9
2018-Feb-07 00:19N 50°22' W 125°38'5 8.8
2018-Feb-06 23:44N 50°22' W 125°46'27 8.5
2018-Feb-06 20:35N 50°30' W 126°26'9 8.3
2018-Feb-06 19:32N 50°31' W 126°39'0 8.6
2018-Feb-06 19:30N 50°32' W 126°40'4 8.7
2018-Feb-06 19:00N 50°33' W 126°46'9 8.8
2018-Feb-06 17:58N 50°35' W 127°00'5 8.5
2018-Feb-06 17:22N 50°37' W 127°07'10 9.0
2018-Feb-06 16:19N 50°44' W 127°19'310.1
2018-Feb-06 15:59N 50°46' W 127°22'9 9.2
2018-Feb-06 15:00N 50°52' W 127°33'510.1
2018-Feb-06 14:30N 50°55' W 127°39'5 9.8
2018-Feb-06 14:00N 50°58' W 127°45'5 9.8
2018-Feb-06 13:30N 51°03' W 127°49'10 9.8
2018-Feb-06 12:29N 51°12' W 127°54'15 9.3
2018-Feb-06 10:50N 51°27' W 127°51'3 9.5
2018-Feb-06 10:30N 51°31' W 127°51'158 8.5
2018-Feb-05 15:54N 53°48' W 129°58'25 8.6
2018-Feb-05 13:00N 54°08' W 130°24'13 8.5
2018-Feb-05 11:29N 54°19' W 130°34'  
Track history (hours):
 
Tides and Currents Weather Stations Pressure Air Temp Water Temp Dewpoint Dewpoint Depression Visibility Wind Speed Wind Dir Waves Ship Positions

Paragon

Owner: Rainier Investments Inc., Edmonds, WA. More information available from US FCC via Universal Licensing System and Coast Guard Vessel Documentation Center.

Last reported at 2018-Feb-09 18:01 UTC. Time now 2018-Feb-20 23:59 UTC.
Position N 47°40' W 122°23'.
Warning: this ship's position is 11 days out of date.

Length 31 m; draft 3 m.

Type: Fishing. MMSI: 367530000.

Date/timePositionNaut miles runAvg speedWind from/ knotsBaromVisibWave heightAir tempDewpointWater temp
2018-Feb-09 18:01N 47°40' W 122°23'1 0.0
2018-Feb-08 22:00N 47°39' W 122°23'0 0.0
2018-Feb-08 21:30N 47°39' W 122°23'0 0.0
2018-Feb-08 21:00N 47°39' W 122°23'0 0.0
2018-Feb-08 20:30N 47°39' W 122°23'0 0.0
2018-Feb-08 20:00N 47°39' W 122°23'0 0.0
2018-Feb-08 19:30N 47°39' W 122°23'0 0.0
2018-Feb-08 19:00N 47°39' W 122°23'0 0.0
2018-Feb-08 18:30N 47°39' W 122°23'0 0.0
2018-Feb-08 18:00N 47°39' W 122°23'0 0.0
2018-Feb-08 17:30N 47°39' W 122°23'0 0.0
2018-Feb-08 17:00N 47°39' W 122°23'0 0.0
2018-Feb-08 16:30N 47°39' W 122°23'0 0.0
2018-Feb-08 16:00N 47°39' W 122°23'0 0.0
2018-Feb-08 15:30N 47°39' W 122°23'0 0.0
2018-Feb-08 15:00N 47°39' W 122°23'0 0.0
2018-Feb-08 13:30N 47°39' W 122°23'0 0.0
2018-Feb-08 13:00N 47°39' W 122°23'0 0.0
2018-Feb-08 12:30N 47°39' W 122°23'0 0.0
2018-Feb-08 12:00N 47°39' W 122°23'0 0.0
2018-Feb-08 11:00N 47°39' W 122°23'0 0.0
2018-Feb-08 10:30N 47°39' W 122°23'0 0.0
2018-Feb-08 10:00N 47°39' W 122°23'0 0.0
2018-Feb-08 09:30N 47°39' W 122°23'0 0.0
2018-Feb-08 09:00N 47°39' W 122°23'0 0.0
2018-Feb-08 08:30N 47°39' W 122°23'0 0.0
2018-Feb-08 08:00N 47°39' W 122°23'0 0.0
2018-Feb-08 07:30N 47°39' W 122°23'0 0.0
2018-Feb-08 07:00N 47°39' W 122°23'0 0.0
2018-Feb-08 06:30N 47°39' W 122°23'0 0.0
2018-Feb-08 06:00N 47°39' W 122°23'0 0.0
2018-Feb-08 05:30N 47°39' W 122°23'0 0.0
2018-Feb-08 05:00N 47°39' W 122°23'0 0.0
2018-Feb-08 04:30N 47°39' W 122°23'0 0.0
2018-Feb-08 04:00N 47°39' W 122°23'0 0.0
2018-Feb-08 03:30N 47°39' W 122°23'0 0.0
2018-Feb-08 03:00N 47°39' W 122°23'0 0.0
2018-Feb-08 01:30N 47°39' W 122°23'1 1.6
2018-Feb-08 01:00N 47°40' W 122°24'2 3.8
2018-Feb-08 00:30N 47°42' W 122°25'5 9.4
2018-Feb-08 00:00N 47°46' W 122°26'4 9.0
2018-Feb-07 23:30N 47°50' W 122°29'5 8.9
2018-Feb-07 23:00N 47°55' W 122°30'4 7.5
2018-Feb-07 22:30N 47°57' W 122°35'3 6.9
2018-Feb-07 22:00N 48°00' W 122°37'122 8.0
2018-Feb-07 06:45N 49°34' W 124°35'3 9.4
2018-Feb-07 06:24N 49°37' W 124°38'4 9.5
2018-Feb-07 06:00N 49°40' W 124°42'5 9.2
2018-Feb-07 05:30N 49°43' W 124°46'5 9.6
2018-Feb-07 04:59N 49°47' W 124°51'4 9.2
2018-Feb-07 04:30N 49°50' W 124°56'5 9.0
2018-Feb-07 04:00N 49°53' W 125°02'5 9.2
2018-Feb-07 03:30N 49°56' W 125°06'611.3
2018-Feb-07 03:00N 50°00' W 125°13'713.5
2018-Feb-07 02:30N 50°06' W 125°18'612.0
2018-Feb-07 02:00N 50°11' W 125°22'510.2
2018-Feb-07 01:29N 50°16' W 125°24'10 8.9
2018-Feb-07 00:19N 50°22' W 125°38'5 8.8
2018-Feb-06 23:44N 50°22' W 125°46'27 8.5
2018-Feb-06 20:35N 50°30' W 126°26'9 8.3
2018-Feb-06 19:32N 50°31' W 126°39'0 8.6
2018-Feb-06 19:30N 50°32' W 126°40'4 8.7
2018-Feb-06 19:00N 50°33' W 126°46'9 8.8
2018-Feb-06 17:58N 50°35' W 127°00'5 8.5
2018-Feb-06 17:22N 50°37' W 127°07'10 9.0
2018-Feb-06 16:19N 50°44' W 127°19'310.1
2018-Feb-06 15:59N 50°46' W 127°22'9 9.2
2018-Feb-06 15:00N 50°52' W 127°33'510.1
2018-Feb-06 14:30N 50°55' W 127°39'5 9.8
2018-Feb-06 14:00N 50°58' W 127°45'5 9.8
2018-Feb-06 13:30N 51°03' W 127°49'10 9.8
2018-Feb-06 12:29N 51°12' W 127°54'15 9.3
2018-Feb-06 10:50N 51°27' W 127°51'3 9.5
2018-Feb-06 10:30N 51°31' W 127°51'158 8.5
2018-Feb-05 15:54N 53°48' W 129°58'25 8.6
2018-Feb-05 13:00N 54°08' W 130°24'13 8.5
2018-Feb-05 11:29N 54°19' W 130°34'  

Dump ship's entire track history